OVO5425 ZPPP-ZSHC
Flight info
| Callsign | OVO5425 |
|---|---|
| Flight time | N/A |
| Altitude | 37100 |
| Route | NODIB W137 LPS A581 WHA R343 UPLEL W95 SAPIN A470 IGRAT |
| Aircraft | A320/M-SDE3FGHIRWY/LB1 |
Departure
| Time | 2026-05-04 13:07 |
|---|---|
| Airport | Kunming Changshui International Airport (ZPPP) |
Arrival
| Time | N/A |
|---|---|
| Airport | Hangzhou Xiaoshan International Airport (ZSHC) |
| Time | Latitude | Longitude | Altitude | Speed | Heading |
|---|---|---|---|---|---|
| 2026-05-04 12:19 | 25.10385 | 102.93311 | 6898 ft | 0 kts | 182° |
| 2026-05-04 12:41 | 25.10387 | 102.93311 | 6897 ft | 2 kts | 182° |
| 2026-05-04 12:41 | 25.10413 | 102.93314 | 6897 ft | 4 kts | 205° |
| 2026-05-04 12:41 | 25.10428 | 102.93331 | 6897 ft | 3 kts | 269° |
| 2026-05-04 12:42 | 25.10429 | 102.93336 | 6897 ft | 0 kts | 274° |
| 2026-05-04 12:44 | 25.10431 | 102.93330 | 6897 ft | 2 kts | 289° |
| 2026-05-04 12:44 | 25.10437 | 102.93322 | 6898 ft | 2 kts | 315° |
| 2026-05-04 12:44 | 25.10447 | 102.93315 | 6897 ft | 2 kts | 328° |
| 2026-05-04 12:44 | 25.10468 | 102.93307 | 6898 ft | 4 kts | 348° |
| 2026-05-04 12:45 | 25.10495 | 102.93309 | 6898 ft | 4 kts | 4° |
| 2026-05-04 12:45 | 25.10522 | 102.93307 | 6898 ft | 4 kts | 338° |
| 2026-05-04 12:45 | 25.10547 | 102.93281 | 6899 ft | 6 kts | 312° |
| 2026-05-04 12:45 | 25.10571 | 102.93248 | 6899 ft | 7 kts | 307° |
| 2026-05-04 12:46 | 25.10603 | 102.93202 | 6900 ft | 7 kts | 309° |
| 2026-05-04 12:46 | 25.10637 | 102.93163 | 6900 ft | 7 kts | 327° |
| 2026-05-04 12:46 | 25.10680 | 102.93165 | 6900 ft | 6 kts | 26° |
| 2026-05-04 12:46 | 25.10717 | 102.93193 | 6900 ft | 7 kts | 37° |
| 2026-05-04 12:47 | 25.10755 | 102.93226 | 6900 ft | 7 kts | 38° |
| 2026-05-04 12:47 | 25.10795 | 102.93261 | 6900 ft | 8 kts | 38° |
| 2026-05-04 12:47 | 25.10839 | 102.93300 | 6900 ft | 8 kts | 39° |
| 2026-05-04 12:47 | 25.10886 | 102.93341 | 6900 ft | 9 kts | 38° |
| 2026-05-04 12:48 | 25.10941 | 102.93358 | 6900 ft | 8 kts | 338° |
| 2026-05-04 12:48 | 25.10980 | 102.93316 | 6900 ft | 8 kts | 307° |
| 2026-05-04 12:48 | 25.11012 | 102.93270 | 6901 ft | 7 kts | 309° |
| 2026-05-04 12:48 | 25.11044 | 102.93227 | 6901 ft | 7 kts | 309° |
| 2026-05-04 12:49 | 25.11075 | 102.93186 | 6902 ft | 7 kts | 309° |
| 2026-05-04 12:49 | 25.11105 | 102.93146 | 6902 ft | 7 kts | 309° |
| 2026-05-04 12:49 | 25.11135 | 102.93102 | 6903 ft | 9 kts | 308° |
| 2026-05-04 12:49 | 25.11176 | 102.93045 | 6903 ft | 10 kts | 308° |
| 2026-05-04 12:50 | 25.11217 | 102.92988 | 6903 ft | 10 kts | 308° |
| 2026-05-04 12:50 | 25.11258 | 102.92930 | 6908 ft | 10 kts | 308° |
| 2026-05-04 12:50 | 25.11311 | 102.92891 | 6906 ft | 9 kts | 6° |
| 2026-05-04 12:50 | 25.11363 | 102.92930 | 6909 ft | 9 kts | 37° |
| 2026-05-04 12:51 | 25.11416 | 102.92976 | 6903 ft | 10 kts | 39° |
| 2026-05-04 12:51 | 25.11472 | 102.93027 | 6903 ft | 11 kts | 39° |
| 2026-05-04 12:51 | 25.11533 | 102.93080 | 6903 ft | 12 kts | 38° |
| 2026-05-04 12:51 | 25.11599 | 102.93136 | 6902 ft | 13 kts | 38° |
| 2026-05-04 12:52 | 25.11671 | 102.93198 | 6902 ft | 14 kts | 37° |
| 2026-05-04 12:52 | 25.11748 | 102.93264 | 6901 ft | 14 kts | 38° |
| 2026-05-04 12:52 | 25.11829 | 102.93335 | 6901 ft | 15 kts | 38° |
| 2026-05-04 12:52 | 25.11915 | 102.93410 | 6900 ft | 16 kts | 38° |
| 2026-05-04 12:53 | 25.12005 | 102.93488 | 6900 ft | 17 kts | 38° |
| 2026-05-04 12:53 | 25.12099 | 102.93569 | 6900 ft | 17 kts | 38° |
| 2026-05-04 12:53 | 25.12171 | 102.93632 | 6899 ft | 12 kts | 38° |
| 2026-05-04 12:53 | 25.12236 | 102.93688 | 6899 ft | 12 kts | 38° |
| 2026-05-04 12:54 | 25.12283 | 102.93729 | 6900 ft | 8 kts | 37° |
| 2026-05-04 12:54 | 25.12303 | 102.93746 | 6899 ft | 0 kts | 37° |
| 2026-05-04 12:54 | 25.12310 | 102.93752 | 6899 ft | 2 kts | 38° |
| 2026-05-04 12:55 | 25.12325 | 102.93765 | 6899 ft | 3 kts | 38° |
| 2026-05-04 12:55 | 25.12354 | 102.93790 | 6899 ft | 7 kts | 38° |
| 2026-05-04 12:55 | 25.12403 | 102.93832 | 6899 ft | 10 kts | 39° |
| 2026-05-04 12:55 | 25.12460 | 102.93883 | 6898 ft | 11 kts | 39° |
| 2026-05-04 12:56 | 25.12520 | 102.93936 | 6898 ft | 11 kts | 39° |
| 2026-05-04 12:56 | 25.12554 | 102.93965 | 6898 ft | 0 kts | 38° |
| 2026-05-04 12:56 | 25.12559 | 102.93970 | 6897 ft | 2 kts | 38° |
| 2026-05-04 12:56 | 25.12564 | 102.93975 | 6897 ft | 0 kts | 38° |
| 2026-05-04 12:57 | 25.12565 | 102.93975 | 6897 ft | 1 kts | 38° |
| 2026-05-04 12:57 | 25.12572 | 102.93981 | 6898 ft | 2 kts | 38° |
| 2026-05-04 12:57 | 25.12575 | 102.93984 | 6897 ft | 1 kts | 38° |
| 2026-05-04 12:57 | 25.12589 | 102.93996 | 6897 ft | 6 kts | 38° |
| 2026-05-04 12:58 | 25.12640 | 102.94039 | 6897 ft | 12 kts | 38° |
| 2026-05-04 12:58 | 25.12706 | 102.94096 | 6896 ft | 12 kts | 38° |
| 2026-05-04 12:58 | 25.12768 | 102.94151 | 6896 ft | 9 kts | 38° |
| 2026-05-04 12:58 | 25.12799 | 102.94177 | 6896 ft | 0 kts | 39° |
| 2026-05-04 12:59 | 25.12800 | 102.94178 | 6896 ft | 1 kts | 39° |
| 2026-05-04 12:59 | 25.12817 | 102.94193 | 6896 ft | 4 kts | 39° |
| 2026-05-04 12:59 | 25.12841 | 102.94214 | 6896 ft | 5 kts | 38° |
| 2026-05-04 12:59 | 25.12873 | 102.94242 | 6896 ft | 6 kts | 38° |
| 2026-05-04 13:00 | 25.12877 | 102.94246 | 6896 ft | 0 kts | 38° |
| 2026-05-04 13:00 | 25.12879 | 102.94247 | 6896 ft | 1 kts | 38° |
| 2026-05-04 13:01 | 25.12894 | 102.94261 | 6896 ft | 3 kts | 38° |
| 2026-05-04 13:01 | 25.12900 | 102.94266 | 6896 ft | 1 kts | 37° |
| 2026-05-04 13:01 | 25.12914 | 102.94274 | 6896 ft | 3 kts | 18° |
| 2026-05-04 13:01 | 25.12930 | 102.94278 | 6896 ft | 0 kts | 9° |
| 2026-05-04 13:02 | 25.12931 | 102.94278 | 6896 ft | 1 kts | 9° |
| 2026-05-04 13:03 | 25.12947 | 102.94274 | 6896 ft | 4 kts | 339° |
| 2026-05-04 13:03 | 25.12970 | 102.94251 | 6895 ft | 5 kts | 306° |
| 2026-05-04 13:03 | 25.12973 | 102.94247 | 6895 ft | 0 kts | 307° |
| 2026-05-04 13:04 | 25.12974 | 102.94245 | 6896 ft | 1 kts | 307° |
| 2026-05-04 13:05 | 25.12977 | 102.94241 | 6896 ft | 0 kts | 307° |
| 2026-05-04 13:05 | 25.12978 | 102.94239 | 6895 ft | 1 kts | 307° |
| 2026-05-04 13:05 | 25.12985 | 102.94229 | 6895 ft | 2 kts | 307° |
| 2026-05-04 13:05 | 25.12999 | 102.94208 | 6895 ft | 5 kts | 307° |
| 2026-05-04 13:06 | 25.13020 | 102.94172 | 6894 ft | 6 kts | 291° |
| 2026-05-04 13:06 | 25.13011 | 102.94123 | 6893 ft | 7 kts | 231° |
| 2026-05-04 13:06 | 25.12974 | 102.94087 | 6894 ft | 7 kts | 220° |
| 2026-05-04 13:06 | 25.12866 | 102.93993 | 6895 ft | 50 kts | 218° |
| 2026-05-04 13:07 | 25.12407 | 102.93594 | 6900 ft | 115 kts | 218° |
| 2026-05-04 13:07 | 25.11638 | 102.92927 | 6908 ft | 164 kts | 218° |
| 2026-05-04 13:07 | 25.10671 | 102.92078 | 7344 ft | 172 kts | 219° |
| 2026-05-04 13:07 | 25.09814 | 102.91249 | 8320 ft | 164 kts | 223° |
| 2026-05-04 13:08 | 25.08771 | 102.90725 | 8807 ft | 175 kts | 179° |
| 2026-05-04 13:08 | 25.07542 | 102.91129 | 8967 ft | 197 kts | 158° |
| 2026-05-04 13:08 | 25.06211 | 102.91753 | 9106 ft | 219 kts | 160° |
| 2026-05-04 13:08 | 25.04729 | 102.92409 | 9245 ft | 240 kts | 160° |
| 2026-05-04 13:09 | 25.03091 | 102.93118 | 9408 ft | 265 kts | 161° |
| 2026-05-04 13:09 | 25.01291 | 102.93888 | 9687 ft | 288 kts | 161° |
| 2026-05-04 13:09 | 24.99375 | 102.94701 | 10177 ft | 302 kts | 161° |
| 2026-05-04 13:09 | 24.97346 | 102.95560 | 10350 ft | 324 kts | 161° |
| 2026-05-04 13:10 | 24.95163 | 102.96482 | 10486 ft | 347 kts | 161° |
| 2026-05-04 13:10 | 24.92859 | 102.97460 | 10768 ft | 361 kts | 161° |
| 2026-05-04 13:10 | 24.90496 | 102.98465 | 11286 ft | 366 kts | 161° |
| 2026-05-04 13:10 | 24.88103 | 102.99482 | 11830 ft | 371 kts | 161° |
| 2026-05-04 13:11 | 24.85679 | 103.00511 | 12391 ft | 375 kts | 161° |
| 2026-05-04 13:11 | 24.83347 | 103.01834 | 12932 ft | 384 kts | 143° |
| 2026-05-04 13:11 | 24.81621 | 103.04085 | 13428 ft | 391 kts | 117° |
| 2026-05-04 13:11 | 24.80864 | 103.06947 | 13880 ft | 394 kts | 92° |
| 2026-05-04 13:12 | 24.81233 | 103.09909 | 14350 ft | 392 kts | 66° |
| 2026-05-04 13:12 | 24.82652 | 103.12421 | 14795 ft | 387 kts | 41° |
| 2026-05-04 13:12 | 24.84852 | 103.14043 | 15224 ft | 380 kts | 17° |
| 2026-05-04 13:12 | 24.87378 | 103.14888 | 15670 ft | 381 kts | 11° |
| 2026-05-04 13:13 | 24.89943 | 103.15681 | 16140 ft | 385 kts | 11° |
| 2026-05-04 13:13 | 24.92531 | 103.16477 | 16606 ft | 388 kts | 11° |
| 2026-05-04 13:13 | 24.95144 | 103.17279 | 17079 ft | 392 kts | 11° |
| 2026-05-04 13:13 | 24.97771 | 103.18124 | 17550 ft | 397 kts | 16° |
| 2026-05-04 13:14 | 25.00234 | 103.19603 | 18007 ft | 409 kts | 30° |
| 2026-05-04 13:14 | 25.02583 | 103.21395 | 18469 ft | 412 kts | 30° |
| 2026-05-04 13:14 | 25.04946 | 103.23214 | 18887 ft | 416 kts | 30° |
| 2026-05-04 13:14 | 25.07319 | 103.25048 | 19336 ft | 417 kts | 31° |
| 2026-05-04 13:15 | 25.09703 | 103.26893 | 19775 ft | 419 kts | 31° |
| 2026-05-04 13:15 | 25.12100 | 103.28743 | 20201 ft | 422 kts | 31° |
| 2026-05-04 13:15 | 25.14512 | 103.30601 | 20622 ft | 424 kts | 31° |
| 2026-05-04 13:15 | 25.16939 | 103.32471 | 21030 ft | 427 kts | 31° |
| 2026-05-04 13:16 | 25.19382 | 103.34355 | 21418 ft | 430 kts | 31° |
| 2026-05-04 13:16 | 25.21841 | 103.36249 | 21776 ft | 432 kts | 31° |
| 2026-05-04 13:16 | 25.24318 | 103.38153 | 22151 ft | 435 kts | 31° |
| 2026-05-04 13:16 | 25.26805 | 103.40068 | 22521 ft | 437 kts | 31° |
| 2026-05-04 13:17 | 25.29304 | 103.41998 | 22889 ft | 440 kts | 31° |
| 2026-05-04 13:17 | 25.31817 | 103.43942 | 23254 ft | 442 kts | 31° |
| 2026-05-04 13:17 | 25.34343 | 103.45898 | 23617 ft | 444 kts | 31° |
| 2026-05-04 13:17 | 25.36880 | 103.47863 | 23962 ft | 446 kts | 31° |
| 2026-05-04 13:18 | 25.39430 | 103.49836 | 24256 ft | 449 kts | 30° |
| 2026-05-04 13:18 | 25.41996 | 103.51824 | 24519 ft | 452 kts | 30° |
| 2026-05-04 13:18 | 25.44577 | 103.53825 | 24782 ft | 455 kts | 30° |
| 2026-05-04 13:18 | 25.47174 | 103.55839 | 25065 ft | 457 kts | 30° |
| 2026-05-04 13:19 | 25.49782 | 103.57866 | 25360 ft | 459 kts | 30° |
| 2026-05-04 13:19 | 25.52286 | 103.60102 | 25630 ft | 467 kts | 39° |
| 2026-05-04 13:19 | 25.54466 | 103.62807 | 25892 ft | 476 kts | 49° |
| 2026-05-04 13:19 | 25.56313 | 103.65878 | 26155 ft | 481 kts | 53° |
| 2026-05-04 13:20 | 25.58120 | 103.69003 | 26414 ft | 483 kts | 53° |
| 2026-05-04 13:20 | 25.59943 | 103.72141 | 26665 ft | 485 kts | 53° |
| 2026-05-04 13:20 | 25.61777 | 103.75292 | 26925 ft | 488 kts | 52° |
| 2026-05-04 13:20 | 25.63621 | 103.78463 | 27185 ft | 490 kts | 52° |
| 2026-05-04 13:21 | 25.65472 | 103.81647 | 27446 ft | 493 kts | 52° |
| 2026-05-04 13:21 | 25.67331 | 103.84852 | 27701 ft | 495 kts | 52° |
| 2026-05-04 13:21 | 25.69197 | 103.88072 | 27972 ft | 498 kts | 52° |
| 2026-05-04 13:21 | 25.71071 | 103.91307 | 28294 ft | 499 kts | 52° |
| 2026-05-04 13:22 | 25.72942 | 103.94539 | 28677 ft | 498 kts | 52° |
| 2026-05-04 13:22 | 25.74811 | 103.97775 | 29069 ft | 498 kts | 52° |
| 2026-05-04 13:22 | 25.76676 | 104.01010 | 29457 ft | 498 kts | 52° |
| 2026-05-04 13:22 | 25.78544 | 104.04248 | 29838 ft | 498 kts | 52° |
| 2026-05-04 13:23 | 25.80413 | 104.07484 | 30219 ft | 498 kts | 51° |
| 2026-05-04 13:23 | 25.82293 | 104.10710 | 30542 ft | 497 kts | 51° |
| 2026-05-04 13:23 | 25.84183 | 104.13923 | 30863 ft | 497 kts | 51° |
| 2026-05-04 13:23 | 25.86078 | 104.17130 | 31209 ft | 496 kts | 51° |
| 2026-05-04 13:24 | 25.87970 | 104.20333 | 31588 ft | 495 kts | 51° |
| 2026-05-04 13:24 | 25.89853 | 104.23529 | 31961 ft | 494 kts | 51° |
| 2026-05-04 13:24 | 25.91732 | 104.26724 | 32321 ft | 494 kts | 51° |
| 2026-05-04 13:25 | 25.95474 | 104.33113 | 33037 ft | 493 kts | 51° |
| 2026-05-04 13:25 | 25.97336 | 104.36305 | 33379 ft | 492 kts | 51° |
| 2026-05-04 13:25 | 25.99196 | 104.39497 | 33723 ft | 492 kts | 51° |
| 2026-05-04 13:25 | 26.01060 | 104.42681 | 34042 ft | 490 kts | 49° |
| 2026-05-04 13:26 | 26.03146 | 104.45628 | 34333 ft | 481 kts | 39° |
| 2026-05-04 13:26 | 26.05551 | 104.48153 | 34609 ft | 472 kts | 31° |
| 2026-05-04 13:26 | 26.08078 | 104.50482 | 34869 ft | 471 kts | 32° |
| 2026-05-04 13:26 | 26.10599 | 104.52812 | 35125 ft | 472 kts | 32° |
| 2026-05-04 13:27 | 26.13119 | 104.55144 | 35237 ft | 471 kts | 32° |
| 2026-05-04 13:27 | 26.15631 | 104.57476 | 35229 ft | 470 kts | 32° |
| 2026-05-04 13:27 | 26.20644 | 104.62140 | 35230 ft | 470 kts | 32° |
| 2026-05-04 13:28 | 26.24842 | 104.66056 | 35215 ft | 471 kts | 32° |
| 2026-05-04 13:28 | 26.29865 | 104.70743 | 35212 ft | 470 kts | 32° |
| 2026-05-04 13:29 | 26.34877 | 104.75420 | 35217 ft | 468 kts | 32° |
| 2026-05-04 13:29 | 26.39875 | 104.80075 | 35249 ft | 469 kts | 32° |
| 2026-05-04 13:30 | 26.44879 | 104.84749 | 35221 ft | 469 kts | 32° |
| 2026-05-04 13:30 | 26.49884 | 104.89438 | 35215 ft | 470 kts | 32° |
| 2026-05-04 13:31 | 26.54897 | 104.94131 | 35203 ft | 470 kts | 31° |
| 2026-05-04 13:31 | 26.59899 | 104.98825 | 35201 ft | 470 kts | 31° |
| 2026-05-04 13:32 | 26.64469 | 105.04168 | 35205 ft | 487 kts | 49° |
| 2026-05-04 13:32 | 26.67582 | 105.11022 | 35171 ft | 499 kts | 59° |
| 2026-05-04 13:33 | 26.70429 | 105.18117 | 35185 ft | 500 kts | 59° |
| 2026-05-04 13:33 | 26.73275 | 105.25215 | 35201 ft | 500 kts | 59° |
| 2026-05-04 13:34 | 26.76116 | 105.32313 | 35184 ft | 500 kts | 59° |
| 2026-05-04 13:34 | 26.78999 | 105.39486 | 35199 ft | 511 kts | 59° |
| 2026-05-04 13:35 | 26.83377 | 105.50431 | 35196 ft | 515 kts | 60° |
| 2026-05-04 13:36 | 26.86288 | 105.57750 | 35198 ft | 515 kts | 60° |
| 2026-05-04 13:36 | 26.89197 | 105.65076 | 35244 ft | 515 kts | 60° |
| 2026-05-04 13:37 | 26.92097 | 105.72404 | 35221 ft | 515 kts | 60° |
| 2026-05-04 13:37 | 26.95004 | 105.79747 | 35213 ft | 516 kts | 60° |
| 2026-05-04 13:38 | 26.97910 | 105.87100 | 35208 ft | 517 kts | 60° |
| 2026-05-04 13:38 | 27.00818 | 105.94475 | 35211 ft | 517 kts | 60° |
| 2026-05-04 13:39 | 27.03722 | 106.01858 | 35225 ft | 517 kts | 60° |
| 2026-05-04 13:39 | 27.06789 | 106.09136 | 35222 ft | 515 kts | 56° |
| 2026-05-04 13:40 | 27.10121 | 106.16233 | 35219 ft | 514 kts | 55° |
| 2026-05-04 13:40 | 27.13475 | 106.23318 | 35248 ft | 514 kts | 56° |
| 2026-05-04 13:41 | 27.16749 | 106.30461 | 35234 ft | 515 kts | 56° |
| 2026-05-04 13:41 | 27.19988 | 106.37650 | 35235 ft | 516 kts | 56° |
| 2026-05-04 13:42 | 27.24859 | 106.48417 | 35230 ft | 515 kts | 56° |
| 2026-05-04 13:42 | 27.28119 | 106.55578 | 35220 ft | 515 kts | 56° |
| 2026-05-04 13:43 | 27.31375 | 106.62765 | 35221 ft | 516 kts | 56° |
| 2026-05-04 13:43 | 27.34623 | 106.69965 | 35233 ft | 516 kts | 56° |
| 2026-05-04 13:44 | 27.37865 | 106.77165 | 35230 ft | 516 kts | 56° |
| 2026-05-04 13:44 | 27.41103 | 106.84370 | 35217 ft | 516 kts | 56° |
| 2026-05-04 13:45 | 27.44326 | 106.91587 | 35215 ft | 516 kts | 56° |
| 2026-05-04 13:45 | 27.47540 | 106.98804 | 35210 ft | 515 kts | 56° |
| 2026-05-04 13:46 | 27.50765 | 107.06010 | 35219 ft | 515 kts | 56° |
| 2026-05-04 13:46 | 27.54031 | 107.13202 | 35210 ft | 515 kts | 56° |
| 2026-05-04 13:47 | 27.57299 | 107.20398 | 35211 ft | 516 kts | 56° |
| 2026-05-04 13:47 | 27.60548 | 107.27598 | 35208 ft | 515 kts | 56° |
| 2026-05-04 13:48 | 27.63789 | 107.34800 | 35205 ft | 515 kts | 56° |
| 2026-05-04 13:48 | 27.67034 | 107.42005 | 35202 ft | 516 kts | 56° |
| 2026-05-04 13:49 | 27.70274 | 107.49225 | 35188 ft | 516 kts | 56° |
| 2026-05-04 13:49 | 27.73512 | 107.56461 | 35191 ft | 517 kts | 56° |
| 2026-05-04 13:50 | 27.76746 | 107.63702 | 35186 ft | 517 kts | 56° |
| 2026-05-04 13:50 | 27.79985 | 107.70946 | 35229 ft | 517 kts | 56° |
| 2026-05-04 13:51 | 27.83210 | 107.78186 | 35214 ft | 515 kts | 56° |
| 2026-05-04 13:51 | 27.86499 | 107.85454 | 35149 ft | 517 kts | 55° |
| 2026-05-04 13:52 | 27.91496 | 107.96335 | 35136 ft | 522 kts | 56° |
| 2026-05-04 13:53 | 27.94822 | 108.03653 | 35142 ft | 524 kts | 56° |
| 2026-05-04 13:53 | 27.98139 | 108.10991 | 35145 ft | 524 kts | 56° |
| 2026-05-04 13:54 | 28.03137 | 108.22038 | 35187 ft | 526 kts | 56° |
| 2026-05-04 13:55 | 28.08145 | 108.33112 | 35154 ft | 527 kts | 56° |
| 2026-05-04 13:55 | 28.13142 | 108.44235 | 35150 ft | 529 kts | 56° |
| 2026-05-04 13:56 | 28.16483 | 108.51671 | 35164 ft | 530 kts | 56° |
| 2026-05-04 13:57 | 28.21492 | 108.62849 | 35145 ft | 531 kts | 56° |
| 2026-05-04 13:58 | 28.28187 | 108.77827 | 35179 ft | 533 kts | 56° |
| 2026-05-04 13:58 | 28.33226 | 108.89093 | 35150 ft | 535 kts | 56° |
| 2026-05-04 13:59 | 28.36604 | 108.96618 | 35144 ft | 535 kts | 56° |
| 2026-05-04 14:00 | 28.41674 | 109.07943 | 35151 ft | 536 kts | 56° |
| 2026-05-04 14:00 | 28.46730 | 109.19294 | 35161 ft | 538 kts | 57° |
| 2026-05-04 14:01 | 28.50074 | 109.26905 | 35153 ft | 539 kts | 57° |
| 2026-05-04 14:02 | 28.55090 | 109.38363 | 35148 ft | 540 kts | 57° |
| 2026-05-04 14:02 | 28.58371 | 109.46058 | 35152 ft | 544 kts | 63° |
| 2026-05-04 14:03 | 28.60661 | 109.52736 | 35154 ft | 546 kts | 63° |
| 2026-05-04 14:03 | 28.63876 | 109.62152 | 35136 ft | 546 kts | 63° |
| 2026-05-04 14:04 | 28.68075 | 109.74207 | 35164 ft | 546 kts | 62° |
| 2026-05-04 14:04 | 28.70977 | 109.82192 | 35167 ft | 545 kts | 62° |
| 2026-05-04 14:05 | 28.74830 | 109.92831 | 35163 ft | 546 kts | 62° |
| 2026-05-04 14:06 | 28.77692 | 110.00852 | 35167 ft | 547 kts | 62° |
| 2026-05-04 14:06 | 28.80542 | 110.08885 | 35166 ft | 547 kts | 62° |
| 2026-05-04 14:07 | 28.83392 | 110.16922 | 35168 ft | 547 kts | 63° |
| 2026-05-04 14:07 | 28.85958 | 110.24177 | 35170 ft | 544 kts | 63° |
| 2026-05-04 14:08 | 28.88782 | 110.32184 | 35164 ft | 544 kts | 63° |
| 2026-05-04 14:08 | 28.91613 | 110.40194 | 35163 ft | 544 kts | 63° |
| 2026-05-04 14:09 | 28.95852 | 110.52215 | 35153 ft | 544 kts | 63° |
| 2026-05-04 14:10 | 29.00073 | 110.64252 | 35144 ft | 545 kts | 63° |
| 2026-05-04 14:10 | 29.02882 | 110.72292 | 35192 ft | 545 kts | 63° |
| 2026-05-04 14:11 | 29.05701 | 110.80310 | 35168 ft | 542 kts | 63° |
| 2026-05-04 14:11 | 29.09956 | 110.92278 | 35156 ft | 542 kts | 63° |
| 2026-05-04 14:12 | 29.12785 | 111.00257 | 35153 ft | 541 kts | 63° |
| 2026-05-04 14:13 | 29.17000 | 111.12237 | 35138 ft | 541 kts | 63° |
| 2026-05-04 14:13 | 29.19805 | 111.20241 | 35133 ft | 542 kts | 64° |
| 2026-05-04 14:14 | 29.22609 | 111.28251 | 35166 ft | 542 kts | 64° |
| 2026-05-04 14:14 | 29.26805 | 111.40260 | 35151 ft | 541 kts | 64° |
| 2026-05-04 14:15 | 29.32361 | 111.56241 | 35137 ft | 539 kts | 64° |
| 2026-05-04 14:16 | 29.37050 | 111.67849 | 35133 ft | 529 kts | 51° |
| 2026-05-04 14:17 | 29.43130 | 111.78409 | 35133 ft | 529 kts | 51° |
| 2026-05-04 14:18 | 29.49183 | 111.89014 | 35117 ft | 530 kts | 51° |
| 2026-05-04 14:19 | 29.57260 | 112.03214 | 35123 ft | 532 kts | 51° |
| 2026-05-04 14:19 | 29.61281 | 112.10280 | 35167 ft | 532 kts | 51° |
| 2026-05-04 14:20 | 29.65319 | 112.17399 | 35146 ft | 531 kts | 51° |
| 2026-05-04 14:20 | 29.69347 | 112.24514 | 35140 ft | 531 kts | 52° |
| 2026-05-04 14:21 | 29.75369 | 112.35193 | 35133 ft | 530 kts | 52° |
| 2026-05-04 14:21 | 29.79370 | 112.42329 | 35128 ft | 530 kts | 52° |
| 2026-05-04 14:22 | 29.83361 | 112.49475 | 35154 ft | 531 kts | 52° |
| 2026-05-04 14:22 | 29.87354 | 112.56623 | 35143 ft | 530 kts | 52° |
| 2026-05-04 14:23 | 29.93326 | 112.67351 | 35135 ft | 530 kts | 52° |
| 2026-05-04 14:24 | 29.97304 | 112.74507 | 35133 ft | 530 kts | 52° |
| 2026-05-04 14:24 | 30.01277 | 112.81665 | 35158 ft | 530 kts | 52° |
| 2026-05-04 14:25 | 30.05254 | 112.88822 | 35146 ft | 529 kts | 52° |
| 2026-05-04 14:25 | 30.11196 | 112.99566 | 35132 ft | 529 kts | 53° |
| 2026-05-04 14:26 | 30.15145 | 113.06732 | 35132 ft | 529 kts | 53° |
| 2026-05-04 14:26 | 30.19093 | 113.13902 | 35119 ft | 529 kts | 53° |
| 2026-05-04 14:27 | 30.23045 | 113.21084 | 35147 ft | 529 kts | 53° |
| 2026-05-04 14:27 | 30.27037 | 113.28222 | 35141 ft | 528 kts | 52° |
| 2026-05-04 14:28 | 30.31057 | 113.35337 | 35138 ft | 528 kts | 52° |
| 2026-05-04 14:28 | 30.35064 | 113.42456 | 35137 ft | 528 kts | 52° |
| 2026-05-04 14:29 | 30.43028 | 113.56765 | 35146 ft | 528 kts | 53° |
| 2026-05-04 14:30 | 30.47002 | 113.63921 | 35143 ft | 527 kts | 53° |
| 2026-05-04 14:31 | 30.52957 | 113.74629 | 35138 ft | 526 kts | 53° |
| 2026-05-04 14:32 | 30.60880 | 113.88925 | 35148 ft | 527 kts | 53° |
| 2026-05-04 14:32 | 30.64829 | 113.96087 | 35149 ft | 526 kts | 53° |
| 2026-05-04 14:33 | 30.68546 | 114.02839 | 35147 ft | 525 kts | 53° |
| 2026-05-04 14:33 | 30.72483 | 114.09983 | 35141 ft | 525 kts | 53° |
| 2026-05-04 14:34 | 30.76421 | 114.17131 | 35130 ft | 525 kts | 53° |
| 2026-05-04 14:34 | 30.79660 | 114.24778 | 35151 ft | 531 kts | 66° |
| 2026-05-04 14:35 | 30.82308 | 114.32800 | 35147 ft | 530 kts | 66° |
| 2026-05-04 14:35 | 30.84904 | 114.40827 | 35139 ft | 530 kts | 67° |
| 2026-05-04 14:36 | 30.87471 | 114.48875 | 35129 ft | 531 kts | 67° |
| 2026-05-04 14:36 | 30.90068 | 114.56921 | 35119 ft | 531 kts | 66° |
| 2026-05-04 14:37 | 30.92687 | 114.64961 | 35130 ft | 531 kts | 66° |
| 2026-05-04 14:37 | 30.95298 | 114.73013 | 35157 ft | 531 kts | 66° |
| 2026-05-04 14:38 | 30.97896 | 114.81063 | 35162 ft | 530 kts | 67° |
| 2026-05-04 14:38 | 31.00477 | 114.89103 | 35162 ft | 529 kts | 67° |
| 2026-05-04 14:39 | 31.03047 | 114.97135 | 35150 ft | 529 kts | 67° |
| 2026-05-04 14:39 | 31.05625 | 115.05163 | 35147 ft | 529 kts | 67° |
| 2026-05-04 14:40 | 31.09481 | 115.17230 | 35147 ft | 530 kts | 67° |
| 2026-05-04 14:40 | 31.12035 | 115.25292 | 35179 ft | 529 kts | 67° |
| 2026-05-04 14:41 | 31.14585 | 115.33342 | 35174 ft | 528 kts | 67° |